Time;durP1;ratioP1;P1;durP2;ratioP2;P2;SDS_P1;SDS_P2;PMS_P1;PMS_P2;Temp;Humidity;BMP_temperature;BMP_pressure;BME280_temperature;BME280_humidity;BME280_pressure;Samples;Min_cycle;Max_cycle;Signal;HPM_P1;HPM_P2
2022/03/21 00:01:11;;;;;;;19.75;11.57;;;;;;;2.69;36.80;102128.00;4471975;32;34549;-77
2022/03/21 00:03:39;;;;;;;15.90;8.65;;;;;;;2.77;36.56;102130.22;4484373;32;33585;-77
2022/03/21 00:06:07;;;;;;;15.13;8.65;;;;;;;2.79;36.40;102129.16;4471632;32;33271;-77
2022/03/21 00:08:35;;;;;;;15.23;8.00;;;;;;;2.79;36.33;102123.72;4471506;32;33022;-77
2022/03/21 00:11:07;;;;;;;13.50;7.53;;;;;;;2.75;36.83;102122.19;4471520;32;34020;-77
2022/03/21 00:13:42;;;;;;;23.60;12.37;;;;;;;2.86;36.33;102135.94;4471830;32;34586;-77
2022/03/21 00:16:15;;;;;;;25.15;12.90;;;;;;;2.62;36.84;102126.66;4484534;32;33122;-77
2022/03/21 00:18:43;;;;;;;23.55;13.32;;;;;;;2.73;36.91;102131.37;4471726;32;34408;-77
2022/03/21 00:21:11;;;;;;;22.42;12.37;;;;;;;2.73;36.99;102124.13;4471573;32;34356;-76
2022/03/21 00:23:41;;;;;;;14.48;7.50;;;;;;;2.61;37.35;102125.78;4458179;32;32632;-77
2022/03/21 00:26:11;;;;;;;15.75;8.35;;;;;;;2.45;37.61;102135.00;4471163;32;31804;-77
2022/03/21 00:28:41;;;;;;;15.98;9.05;;;;;;;2.71;37.05;102130.63;4471642;32;34649;-77
2022/03/21 00:31:14;;;;;;;17.00;8.52;;;;;;;2.61;36.83;102122.19;4484063;32;34417;-77
2022/03/21 00:33:45;;;;;;;13.98;8.27;;;;;;;2.63;36.80;102122.97;4458639;32;32071;-77
2022/03/21 00:36:18;;;;;;;20.10;9.77;;;;;;;2.58;37.44;102123.31;4458636;32;32900;-77
2022/03/21 00:39:09;;;;;;;15.05;8.32;;;;;;;2.55;36.94;102111.78;4474173;32;33646;-77
2022/03/21 00:41:37;;;;;;;14.23;8.25;;;;;;;2.59;36.75;102118.75;4485809;32;35477;-77
2022/03/21 00:44:08;;;;;;;15.18;7.95;;;;;;;2.60;36.74;102109.66;4484065;32;32989;-77
2022/03/21 00:46:41;;;;;;;15.48;7.30;;;;;;;2.57;36.69;102117.97;4471244;32;31514;-77
2022/03/21 00:49:13;;;;;;;14.13;7.28;;;;;;;2.53;36.75;102119.16;4471114;32;33809;-77
2022/03/21 00:51:44;;;;;;;15.10;7.82;;;;;;;2.48;37.16;102121.28;4471060;32;33150;-77
2022/03/21 00:54:14;;;;;;;13.15;7.30;;;;;;;2.54;37.01;102108.19;4458152;32;32373;-77
2022/03/21 00:56:47;;;;;;;14.95;8.50;;;;;;;2.58;37.13;102109.75;4471166;32;33990;-77
2022/03/21 00:59:20;;;;;;;13.45;7.93;;;;;;;2.54;37.03;102115.47;4470550;32;33595;-78
2022/03/21 01:01:53;;;;;;;13.40;7.47;;;;;;;2.54;36.83;102113.62;4470325;32;35192;-77
2022/03/21 01:04:23;;;;;;;12.73;7.50;;;;;;;2.46;36.90;102115.06;4470862;32;33322;-77
2022/03/21 01:06:57;;;;;;;14.57;7.05;;;;;;;2.49;36.86;102112.16;4470881;32;33239;-77
2022/03/21 01:09:25;;;;;;;12.73;7.00;;;;;;;2.35;37.17;102110.34;4455371;32;33551;-77
2022/03/21 01:11:53;;;;;;;12.50;6.90;;;;;;;2.28;37.47;102115.28;4455211;32;33136;-77
2022/03/21 01:14:20;;;;;;;11.18;6.65;;;;;;;2.28;37.46;102101.72;4455676;32;34601;-77
2022/03/21 01:16:50;;;;;;;17.37;6.37;;;;;;;2.30;37.29;102113.34;4457230;32;32867;-77
2022/03/21 01:19:18;;;;;;;17.02;6.62;;;;;;;2.29;37.31;102106.16;4470073;32;33639;-77
2022/03/21 01:21:48;;;;;;;12.70;6.62;;;;;;;2.24;37.68;102102.88;4457419;32;35033;-77
2022/03/21 01:24:19;;;;;;;12.30;6.57;;;;;;;2.17;37.99;102104.22;4457302;32;33918;-77
2022/03/21 01:26:51;;;;;;;12.50;6.55;;;;;;;2.21;37.83;102108.50;4457510;32;33546;-77
2022/03/21 01:29:20;;;;;;;12.50;5.80;;;;;;;2.04;38.27;102108.66;4457332;32;33767;-77
2022/03/21 01:31:50;;;;;;;12.52;6.15;;;;;;;2.11;38.07;102104.59;4457151;32;35150;-77
2022/03/21 01:34:20;;;;;;;13.62;6.18;;;;;;;2.21;37.88;102100.34;4470984;32;33606;-77
2022/03/21 01:36:50;;;;;;;12.85;6.32;;;;;;;2.25;37.66;102101.03;4469840;32;33534;-77
2022/03/21 01:39:21;;;;;;;17.35;6.18;;;;;;;2.21;37.45;102103.06;4469887;32;33700;-77
2022/03/21 01:41:49;;;;;;;11.15;5.70;;;;;;;1.99;37.78;102098.13;4456972;32;33030;-77
2022/03/21 01:44:19;;;;;;;10.32;5.37;;;;;;;1.96;37.54;102087.47;4444470;32;32547;-77
2022/03/21 01:46:47;;;;;;;12.40;5.95;;;;;;;2.03;37.66;102096.09;4457314;32;33996;-77
2022/03/21 01:49:17;;;;;;;12.30;6.47;;;;;;;2.07;37.55;102096.78;4456940;32;34046;-77
2022/03/21 01:51:47;;;;;;;9.57;5.22;;;;;;;2.21;37.45;102096.78;4469795;32;35188;-77
2022/03/21 01:57:06;;;;;;;12.45;5.93;;;;;;;2.25;37.27;102098.34;4458859;32;31811;-77
2022/03/21 01:59:37;;;;;;;10.13;5.50;;;;;;;2.12;37.37;102091.94;4456699;32;32380;-78
2022/03/21 02:02:09;;;;;;;13.17;6.37;;;;;;;2.05;37.56;102093.28;4456741;32;32742;-77
2022/03/21 02:04:40;;;;;;;15.03;5.93;;;;;;;1.86;37.90;102097.16;4457682;32;34517;-77
2022/03/21 02:07:10;;;;;;;13.00;6.22;;;;;;;1.96;37.99;102097.44;4457230;32;33998;-77
2022/03/21 02:09:38;;;;;;;11.80;5.93;;;;;;;1.98;38.13;102082.84;4456767;32;33680;-77
2022/03/21 02:12:09;;;;;;;13.10;6.28;;;;;;;1.98;38.03;102087.37;4457373;32;33084;-77
2022/03/21 02:14:40;;;;;;;13.32;6.00;;;;;;;1.86;38.38;102086.31;4457190;32;33838;-77
2022/03/21 02:17:13;;;;;;;12.00;6.37;;;;;;;1.89;38.36;102078.00;4469090;32;33341;-77
2022/03/21 02:19:45;;;;;;;12.50;5.87;;;;;;;1.94;38.35;102078.59;4457767;32;33719;-77
2022/03/21 02:22:28;;;;;;;11.73;5.80;;;;;;;1.99;38.35;102081.00;4469568;32;35311;-77
2022/03/21 02:25:20;;;;;;;13.10;6.75;;;;;;;1.88;38.31;102075.41;4469390;32;32470;-77
2022/03/21 02:27:52;;;;;;;12.88;6.50;;;;;;;1.96;37.96;102081.19;4470000;32;33262;-78
2022/03/21 02:30:25;;;;;;;14.52;6.43;;;;;;;1.72;38.23;102080.00;4443475;32;32142;-77
2022/03/21 02:32:57;;;;;;;10.63;5.57;;;;;;;1.80;38.33;102081.28;4456685;32;34557;-77
2022/03/21 02:35:33;;;;;;;11.32;5.90;;;;;;;1.84;38.98;102079.25;4444096;32;32434;-77
2022/03/21 02:38:06;;;;;;;11.75;5.95;;;;;;;1.81;39.22;102071.31;4456666;32;31851;-77
2022/03/21 02:40:36;;;;;;;12.35;5.95;;;;;;;1.65;39.26;102080.38;4469423;32;34583;-76
2022/03/21 02:43:07;;;;;;;10.73;5.78;;;;;;;1.57;39.03;102073.69;4469732;32;34543;-77
2022/03/21 02:45:41;;;;;;;12.30;5.75;;;;;;;1.64;38.70;102081.34;4470928;32;33620;-77
2022/03/21 02:48:15;;;;;;;15.23;6.30;;;;;;;1.72;38.28;102078.19;4456649;32;32068;-77
2022/03/21 02:50:55;;;;;;;11.35;5.90;;;;;;;1.79;38.18;102075.97;4457095;32;33607;-76
2022/03/21 02:53:28;;;;;;;12.00;5.72;;;;;;;1.58;38.71;102073.59;4456971;32;35047;-77
2022/03/21 02:55:58;;;;;;;11.55;5.90;;;;;;;1.63;38.74;102071.47;4456669;32;32388;-77
2022/03/21 02:58:26;;;;;;;12.02;5.47;;;;;;;1.62;38.83;102075.16;4456448;32;33231;-77
2022/03/21 03:01:08;;;;;;;12.40;6.10;;;;;;;1.59;38.92;102080.75;4470516;32;33630;-77
2022/03/21 03:03:41;;;;;;;13.48;6.20;;;;;;;1.68;38.80;102073.91;4470458;32;34606;-77
2022/03/21 03:06:12;;;;;;;12.30;6.03;;;;;;;1.77;38.84;102069.78;4456741;32;32384;-77
2022/03/21 03:08:44;;;;;;;10.73;5.97;;;;;;;1.54;39.46;102079.28;4469262;32;34328;-77
2022/03/21 03:11:17;;;;;;;14.27;6.83;;;;;;;1.51;39.47;102074.94;4468873;32;33743;-76
2022/03/21 03:13:47;;;;;;;10.30;5.75;;;;;;;1.50;39.52;102070.47;4470446;32;35115;-76
2022/03/21 03:16:17;;;;;;;13.38;6.57;;;;;;;1.44;39.37;102073.56;4443665;32;33241;-77
2022/03/21 03:18:50;;;;;;;10.63;5.45;;;;;;;1.54;39.08;102063.06;4456744;32;33355;-77
2022/03/21 03:21:25;;;;;;;13.00;5.85;;;;;;;1.43;38.89;102074.50;4456564;32;34410;-77
2022/03/21 03:23:55;;;;;;;11.43;6.12;;;;;;;1.49;38.66;102075.97;4456332;32;33039;-77
2022/03/21 03:26:26;;;;;;;12.90;5.65;;;;;;;1.26;39.26;102075.53;4456457;32;34515;-77
2022/03/21 03:28:59;;;;;;;12.85;5.75;;;;;;;1.33;39.25;102076.03;4456330;32;33376;-77
2022/03/21 03:31:30;;;;;;;13.80;6.43;;;;;;;1.35;39.08;102074.09;4469379;32;33825;-77
2022/03/21 03:34:03;;;;;;;12.10;6.07;;;;;;;1.30;39.10;102078.94;4469210;32;34218;-77
2022/03/21 03:36:33;;;;;;;71.07;37.00;;;;;;;1.42;38.75;102070.06;4455732;32;32521;-77
2022/03/21 03:39:06;;;;;;;44.55;22.80;;;;;;;1.35;38.80;102079.50;4469086;32;32985;-77
2022/03/21 03:41:46;;;;;;;14.35;7.20;;;;;;;1.39;38.80;102080.19;4468912;32;34064;-77
2022/03/21 03:44:22;;;;;;;16.67;8.27;;;;;;;1.45;38.84;102086.12;4444621;32;32988;-77
2022/03/21 03:46:52;;;;;;;15.30;9.02;;;;;;;1.16;39.18;102071.63;4456334;32;33933;-77
2022/03/21 03:49:23;;;;;;;20.90;11.20;;;;;;;1.06;39.62;102083.09;4456131;32;33524;-77
2022/03/21 03:51:57;;;;;;;24.98;13.80;;;;;;;1.21;39.33;102080.34;4456390;32;34430;-77
2022/03/21 03:54:30;;;;;;;30.30;17.10;;;;;;;1.20;39.67;102077.75;4456169;32;34252;-76
2022/03/21 03:57:06;;;;;;;22.30;11.12;;;;;;;1.29;39.59;102090.72;4456136;32;34182;-77
2022/03/21 03:59:45;;;;;;;18.37;9.45;;;;;;;1.04;39.78;102085.00;4468789;32;33596;-77
2022/03/21 04:02:18;;;;;;;20.12;11.85;;;;;;;1.21;39.57;102093.00;4468740;32;33812;-77
2022/03/21 04:04:49;;;;;;;24.30;12.63;;;;;;;1.14;39.92;102092.50;4468465;32;34528;-77
2022/03/21 04:07:19;;;;;;;18.52;10.52;;;;;;;1.21;39.82;102093.00;4443414;32;32313;-76
2022/03/21 04:09:49;;;;;;;20.30;11.30;;;;;;;1.04;39.85;102094.00;4455785;32;33146;-77
2022/03/21 04:12:16;;;;;;;18.93;8.60;;;;;;;1.23;39.91;102088.38;4455825;32;32267;-76
2022/03/21 04:14:49;;;;;;;20.48;9.20;;;;;;;1.20;40.00;102097.53;4468662;32;34029;-77
2022/03/21 04:17:22;;;;;;;17.83;9.73;;;;;;;1.17;39.70;102094.16;4469792;32;33951;-76
2022/03/21 04:19:58;;;;;;;17.00;9.32;;;;;;;1.16;40.06;102092.41;4468641;32;33347;-76
2022/03/21 04:22:31;;;;;;;;;;;;;;;1.09;40.25;102089.19;4468577;32;34408;-77
2022/03/21 04:25:03;;;;;;;14.80;8.45;;;;;;;1.10;39.98;102096.34;4455833;32;34354;-76
2022/03/21 04:27:41;;;;;;;16.90;8.35;;;;;;;0.89;40.14;102084.94;4468750;32;33754;-76
2022/03/21 04:30:19;;;;;;;14.05;7.95;;;;;;;1.00;40.04;102097.81;4455539;32;31498;-76
2022/03/21 04:32:52;;;;;;;13.40;7.68;;;;;;;0.89;40.46;102095.75;4455733;32;34327;-76
2022/03/21 04:35:27;;;;;;;31.17;17.80;;;;;;;0.84;40.63;102100.53;4455827;32;34230;-77
2022/03/21 04:38:06;;;;;;;76.60;39.42;;;;;;;0.93;40.65;102102.72;4469120;32;32570;-77
2022/03/21 04:40:37;;;;;;;69.75;36.65;;;;;;;0.97;40.49;102106.97;4455644;32;33571;-76
2022/03/21 04:43:16;;;;;;;43.97;24.23;;;;;;;0.96;40.65;102102.53;4467893;32;33558;-76
2022/03/21 04:45:52;;;;;;;30.30;16.50;;;;;;;0.92;40.57;102100.09;4467983;32;34273;-77
2022/03/21 04:48:27;;;;;;;34.40;17.90;;;;;;;0.92;40.77;102108.22;4468569;32;34804;-76
2022/03/21 04:50:58;;;;;;;25.30;12.93;;;;;;;1.09;40.18;102107.25;4456983;32;33003;-77
2022/03/21 04:53:30;;;;;;;24.17;12.57;;;;;;;0.75;40.99;102103.75;4457872;32;33712;-77
2022/03/21 04:56:03;;;;;;;27.13;13.00;;;;;;;0.69;41.27;102103.22;4470123;32;34122;-77
2022/03/21 04:58:31;;;;;;;21.85;12.45;;;;;;;0.90;41.17;102104.72;4469712;32;33986;-77
2022/03/21 05:01:05;;;;;;;22.63;11.90;;;;;;;0.91;41.09;102112.75;4469951;32;34025;-77
2022/03/21 05:03:36;;;;;;;18.70;10.03;;;;;;;0.87;41.26;102111.16;4457671;32;33746;-77
2022/03/21 05:06:07;;;;;;;16.98;8.43;;;;;;;1.07;40.91;102111.87;4457145;32;34386;-77
2022/03/21 05:08:38;;;;;;;16.97;8.43;;;;;;;0.90;41.04;102111.00;4444360;32;32332;-77
2022/03/21 05:11:09;;;;;;;13.13;7.03;;;;;;;1.05;40.92;102122.78;4469723;32;34081;-77
2022/03/21 05:13:43;;;;;;;15.13;7.47;;;;;;;0.92;40.78;102125.31;4457558;32;33450;-76
2022/03/21 05:16:21;;;;;;;14.40;6.77;;;;;;;0.94;40.49;102117.97;4457107;32;32595;-76
2022/03/21 05:18:52;;;;;;;;;;;;;;;0.83;40.63;102123.12;4457765;32;32213;-76
2022/03/21 05:21:27;;;;;;;12.07;6.65;;;;;;;0.96;40.19;102113.34;4470220;32;33299;-77
2022/03/21 05:32:33;;;;;;;14.07;6.90;;;;;;;0.86;40.96;102128.34;4470392;32;33312;-77
2022/03/21 05:37:58;;;;;;;17.63;7.70;;;;;;;1.20;40.71;102129.13;4470021;32;34263;-77
2022/03/21 05:40:34;;;;;;;14.80;7.30;;;;;;;1.40;40.62;102130.63;4456902;32;33970;-77
2022/03/21 05:43:05;;;;;;;16.20;8.65;;;;;;;1.44;40.41;102132.22;4457676;32;31993;-77
2022/03/21 05:45:33;;;;;;;17.73;8.48;;;;;;;1.35;40.61;102127.34;4469802;32;34584;-77
2022/03/21 05:50:49;;;;;;;17.07;8.17;;;;;;;1.83;52.38;102137.94;4458633;32;33327;-77
2022/03/21 05:53:22;;;;;;;16.80;7.78;;;;;;;2.23;44.47;102130.94;4444415;32;31894;-77
2022/03/21 05:55:52;;;;;;;12.87;7.13;;;;;;;2.11;40.75;102134.41;4469825;32;33642;-78
2022/03/21 05:58:19;;;;;;;16.10;7.75;;;;;;;2.25;40.13;102129.00;4469671;32;34453;-78
2022/03/21 06:00:47;;;;;;;16.95;7.78;;;;;;;2.51;39.76;102131.91;4469663;32;34151;-77
2022/03/21 06:03:16;;;;;;;14.27;7.12;;;;;;;2.64;39.58;102133.72;4444454;32;32985;-77
2022/03/21 06:05:46;;;;;;;14.60;8.18;;;;;;;2.73;39.56;102118.72;4456764;32;34475;-76
2022/03/21 06:08:17;;;;;;;18.80;8.77;;;;;;;2.89;39.57;102130.31;4469579;32;34553;-76
2022/03/21 06:10:45;;;;;;;13.95;7.97;;;;;;;3.22;39.00;102129.94;4444167;32;32872;-77
2022/03/21 06:13:14;;;;;;;14.40;8.27;;;;;;;3.16;39.15;102132.19;4469384;32;33212;-77
2022/03/21 06:15:41;;;;;;;18.73;9.23;;;;;;;3.25;39.29;102135.13;4469772;32;33690;-77
2022/03/21 06:18:10;;;;;;;20.55;11.63;;;;;;;3.52;38.90;102131.53;4444370;32;33225;-78
2022/03/21 06:20:39;;;;;;;20.30;10.65;;;;;;;3.61;37.86;102131.78;4473390;32;33939;-77
2022/03/21 06:23:09;;;;;;;22.87;10.88;;;;;;;3.98;37.64;102140.97;4463254;32;31950;-77
2022/03/21 06:25:37;;;;;;;22.98;13.35;;;;;;;4.46;41.97;102141.22;4441672;32;34567;-77
2022/03/21 06:28:05;;;;;;;21.70;12.43;;;;;;;4.72;38.46;102141.19;4441993;32;34231;-77
2022/03/21 06:30:33;;;;;;;23.65;12.40;;;;;;;5.01;36.70;102136.34;4455913;32;33068;-77
2022/03/21 06:33:00;;;;;;;34.15;15.73;;;;;;;5.26;36.54;102136.22;4470056;32;33761;-77
2022/03/21 06:35:28;;;;;;;23.77;12.37;;;;;;;5.42;36.05;102125.06;4481908;32;34498;-78
2022/03/21 06:37:56;;;;;;;25.85;13.13;;;;;;;5.63;35.50;102139.78;4456609;32;34231;-77
2022/03/21 06:40:25;;;;;;;34.55;16.08;;;;;;;5.87;34.35;102142.44;4469057;32;34584;-77
2022/03/21 06:42:57;;;;;;;38.58;18.52;;;;;;;6.16;34.46;102127.44;4469213;32;34298;-76
2022/03/21 06:45:25;;;;;;;46.58;20.75;;;;;;;6.38;33.67;102133.94;4456562;32;33527;-76
2022/03/21 06:47:52;;;;;;;24.12;12.77;;;;;;;6.56;33.34;102130.59;4457223;32;35154;-76
2022/03/21 06:50:20;;;;;;;20.75;10.90;;;;;;;6.72;30.86;102135.66;4462625;32;33290;-76
2022/03/21 06:52:49;;;;;;;20.73;10.30;;;;;;;6.81;29.68;102140.38;4471589;32;33450;-76
2022/03/21 06:55:27;;;;;;;18.80;9.45;;;;;;;7.12;29.99;102141.47;4466612;32;32229;-76
2022/03/21 06:57:55;;;;;;;19.42;9.95;;;;;;;7.43;28.52;102139.78;4471981;32;34316;-76
2022/03/21 07:00:28;;;;;;;17.17;8.98;;;;;;;7.84;28.04;102136.25;4479680;32;33789;-76
2022/03/21 07:02:58;;;;;;;18.27;9.93;;;;;;;8.36;27.05;102139.09;4485435;32;34016;-76
2022/03/21 07:05:30;;;;;;;21.20;9.85;;;;;;;8.89;26.52;102140.66;4476918;32;32332;-76
2022/03/21 07:07:58;;;;;;;17.58;8.80;;;;;;;8.59;26.06;102149.72;4484000;32;35176;-76
2022/03/21 07:10:26;;;;;;;18.08;9.68;;;;;;;8.96;25.83;102145.56;4484453;32;32761;-77
2022/03/21 07:12:54;;;;;;;15.52;9.02;;;;;;;9.22;25.50;102144.06;4483776;32;33248;-76
2022/03/21 07:15:21;;;;;;;22.15;9.52;;;;;;;9.53;25.30;102150.31;4484371;32;33433;-76
2022/03/21 07:17:55;;;;;;;21.58;10.77;;;;;;;9.53;24.76;102156.69;4484503;32;34481;-76
2022/03/21 07:20:28;;;;;;;19.80;9.90;;;;;;;9.41;25.25;102140.50;4484400;32;34769;-75
2022/03/21 07:23:00;;;;;;;17.83;10.52;;;;;;;9.48;24.63;102138.91;4459019;32;32167;-76
2022/03/21 07:25:29;;;;;;;21.77;10.48;;;;;;;9.98;24.56;102152.50;4484457;32;33682;-76
2022/03/21 07:27:59;;;;;;;18.90;10.10;;;;;;;10.13;24.59;102149.19;4484776;32;34761;-77
2022/03/21 07:30:27;;;;;;;15.68;9.25;;;;;;;10.40;23.69;102142.09;4458906;32;32168;-77
2022/03/21 07:32:59;;;;;;;18.17;10.05;;;;;;;9.78;23.69;102144.25;4471988;32;33111;-77
2022/03/21 07:35:26;;;;;;;16.48;9.48;;;;;;;10.23;23.65;102147.31;4484889;32;33633;-76
2022/03/21 07:37:57;;;;;;;15.57;9.48;;;;;;;10.22;23.28;102144.72;4472001;32;34349;-76
2022/03/21 07:40:30;;;;;;;18.65;10.85;;;;;;;9.94;23.81;102149.19;4471961;32;32630;-76
2022/03/21 07:43:00;;;;;;;16.10;10.20;;;;;;;10.16;23.19;102154.38;4472239;32;33409;-76
2022/03/21 07:48:27;;;;;;;19.70;10.45;;;;;;;10.37;23.51;102147.88;4484911;32;34312;-76
2022/03/21 07:50:55;;;;;;;19.05;10.15;;;;;;;10.69;23.01;102151.09;4472140;32;32338;-76
2022/03/21 07:53:28;;;;;;;15.57;9.77;;;;;;;10.68;22.67;102152.09;4471879;32;33168;-76
2022/03/21 07:56:01;;;;;;;17.30;11.18;;;;;;;10.75;22.79;102149.63;4484211;32;33724;-76
2022/03/21 07:58:29;;;;;;;19.62;9.80;;;;;;;11.27;22.52;102145.31;4484477;32;32859;-77
2022/03/21 08:01:00;;;;;;;19.77;11.23;;;;;;;11.52;22.20;102149.22;4471527;32;34638;-76
2022/03/21 08:03:33;;;;;;;20.45;10.63;;;;;;;11.28;22.44;102152.53;4471856;32;33577;-76
2022/03/21 08:06:10;;;;;;;20.92;13.77;;;;;;;11.21;22.21;102154.19;4461523;32;32233;-77
2022/03/21 08:08:44;;;;;;;25.80;14.70;;;;;;;11.26;22.22;102150.97;4472065;32;33422;-76
2022/03/21 08:11:11;;;;;;;29.77;17.45;;;;;;;11.74;22.20;102148.75;4471275;32;33233;-77
2022/03/21 08:14:01;;;;;;;19.77;11.98;;;;;;;11.87;21.91;102145.63;4473797;32;34402;-77
2022/03/21 08:16:29;;;;;;;21.75;11.98;;;;;;;12.17;21.44;102150.75;4471491;32;33722;-77
2022/03/21 08:18:57;;;;;;;28.80;16.85;;;;;;;12.44;21.12;102151.59;4449589;32;34326;-77
2022/03/21 08:21:25;;;;;;;113.03;57.97;;;;;;;12.44;21.14;102152.47;4455665;32;32491;-77
2022/03/21 08:24:12;;;;;;;93.90;49.67;;;;;;;11.80;21.19;102150.91;4443213;32;34215;-77
2022/03/21 08:26:43;;;;;;;49.53;24.80;;;;;;;11.94;21.29;102146.75;4428825;32;33202;-77
2022/03/21 08:29:15;;;;;;;36.58;25.40;;;;;;;12.01;21.04;102146.97;4453659;32;33320;-77
2022/03/21 08:31:51;;;;;;;69.75;45.65;;;;;;;12.18;21.31;102144.22;4455460;32;33991;-77
2022/03/21 08:34:32;;;;;;;54.77;36.83;;;;;;;12.45;21.24;102131.31;4469578;32;33382;-77
2022/03/21 08:37:08;;;;;;;24.37;13.80;;;;;;;12.39;20.79;102134.69;4455618;32;33580;-78
2022/03/21 08:39:41;;;;;;;20.67;11.77;;;;;;;12.51;21.21;102134.28;4468099;32;35474;-77
2022/03/21 08:42:09;;;;;;;18.27;11.27;;;;;;;12.68;20.80;102128.87;4438065;32;33313;-78
2022/03/21 08:44:39;;;;;;;19.23;11.18;;;;;;;13.21;20.46;102128.63;4458609;32;33318;-78
2022/03/21 08:47:11;;;;;;;22.83;10.73;;;;;;;13.26;20.12;102126.25;4447263;32;33215;-78
2022/03/21 08:49:44;;;;;;;18.35;11.12;;;;;;;13.64;19.48;102118.41;4454517;32;34155;-78
2022/03/21 08:52:19;;;;;;;19.95;11.32;;;;;;;14.00;19.55;102118.94;4458089;32;32417;-78
2022/03/21 08:54:52;;;;;;;32.42;18.98;;;;;;;14.23;19.75;102108.09;4480076;32;34165;-78
2022/03/21 08:57:28;;;;;;;20.08;12.85;;;;;;;14.41;19.64;102106.84;4455068;32;33597;-78
2022/03/21 08:59:58;;;;;;;22.40;12.40;;;;;;;14.30;19.09;102114.63;4450968;32;34101;-78
2022/03/21 09:02:30;;;;;;;17.50;12.52;;;;;;;14.46;18.78;102114.63;4449713;32;32572;-78
2022/03/21 09:05:04;;;;;;;23.30;12.20;;;;;;;14.24;19.32;102115.34;4451008;32;31983;-78
2022/03/21 09:07:37;;;;;;;21.67;12.32;;;;;;;14.60;18.76;102107.50;4426824;32;35203;-78
2022/03/21 09:10:07;;;;;;;20.73;13.90;;;;;;;14.53;19.33;102110.12;4439186;32;34466;-78
2022/03/21 09:12:42;;;;;;;20.12;14.35;;;;;;;14.70;18.87;102100.75;4426474;32;33327;-78
2022/03/21 09:15:20;;;;;;;27.42;17.25;;;;;;;14.92;18.47;102092.75;4426631;32;31960;-78
2022/03/21 09:17:51;;;;;;;30.20;16.42;;;;;;;15.36;18.18;102096.66;4433562;32;35125;-78
2022/03/21 09:20:19;;;;;;;21.62;14.55;;;;;;;15.21;18.25;102090.16;4437488;32;35175;-78
2022/03/21 09:22:53;;;;;;;25.23;16.05;;;;;;;15.33;17.85;102088.72;4438690;32;33894;-78
2022/03/21 09:25:21;;;;;;;22.15;14.77;;;;;;;15.34;18.20;102097.87;4439367;32;33049;-78
2022/03/21 09:27:52;;;;;;;21.00;13.62;;;;;;;15.19;17.86;102094.16;4439383;32;34662;-78
2022/03/21 09:30:22;;;;;;;21.70;12.40;;;;;;;15.72;17.80;102088.66;4426441;32;34728;-78
2022/03/21 09:32:57;;;;;;;16.65;11.02;;;;;;;14.74;18.28;102088.31;4426706;32;33391;-78
2022/03/21 09:35:28;;;;;;;19.10;11.40;;;;;;;15.64;17.63;102087.84;4427041;32;32865;-78
2022/03/21 09:38:06;;;;;;;21.73;11.52;;;;;;;15.57;17.54;102081.34;4441219;32;32390;-78
2022/03/21 09:40:42;;;;;;;19.02;10.63;;;;;;;16.08;17.27;102086.12;4441695;32;34298;-78
2022/03/21 09:43:13;;;;;;;22.52;11.35;;;;;;;16.39;17.05;102083.19;4429260;32;34035;-78
2022/03/21 09:45:47;;;;;;;35.10;27.17;;;;;;;16.51;17.00;102074.41;4428816;32;34125;-78
2022/03/21 09:48:19;;;;;;;24.55;12.95;;;;;;;16.11;16.64;102073.81;4441528;32;34483;-78
2022/03/21 09:50:52;;;;;;;20.25;12.00;;;;;;;16.68;16.29;102076.84;4428778;32;33661;-78
2022/03/21 09:53:24;;;;;;;25.27;16.15;;;;;;;16.63;16.69;102084.00;4428481;32;33482;-78
2022/03/21 09:56:00;;;;;;;18.45;11.10;;;;;;;16.57;17.71;102074.53;4435734;32;31832;-78
2022/03/21 09:58:36;;;;;;;20.35;11.15;;;;;;;16.63;16.46;102078.44;4432150;32;33407;-78
2022/03/21 10:01:11;;;;;;;20.40;11.18;;;;;;;16.76;16.08;102084.22;4453341;32;34722;-78
2022/03/21 10:03:46;;;;;;;16.45;10.68;;;;;;;16.91;15.47;102079.50;4453830;32;33920;-78
2022/03/21 10:06:27;;;;;;;19.02;9.77;;;;;;;17.01;15.83;102057.88;4454604;32;33449;-78
2022/03/21 10:09:12;;;;;;;14.07;8.75;;;;;;;16.43;15.10;102069.81;4454322;32;34016;-79
2022/03/21 10:11:54;;;;;;;13.57;8.77;;;;;;;16.77;15.23;102063.75;4453931;32;34454;-78
2022/03/21 10:14:35;;;;;;;13.93;8.10;;;;;;;17.24;14.43;102062.44;4457152;32;34618;-79
2022/03/21 10:17:11;;;;;;;13.18;9.07;;;;;;;17.42;14.33;102060.97;4456815;32;33271;-79
2022/03/21 10:19:52;;;;;;;15.18;10.02;;;;;;;17.62;14.48;102050.03;4456549;32;33597;-78
2022/03/21 10:22:37;;;;;;;21.27;10.95;;;;;;;17.86;15.10;102054.38;4443856;32;32866;-78
2022/03/21 10:25:19;;;;;;;18.25;11.07;;;;;;;17.98;14.80;102047.22;4443720;32;35579;-79
2022/03/21 10:27:51;;;;;;;77.40;47.03;;;;;;;18.26;14.74;102038.88;4443628;32;31768;-78
2022/03/21 10:30:26;;;;;;;23.60;16.05;;;;;;;18.21;16.57;102040.53;4457053;32;33771;-78
2022/03/21 10:33:01;;;;;;;16.73;11.10;;;;;;;18.49;15.13;102040.53;4457109;32;35332;-79
2022/03/21 10:35:36;;;;;;;16.48;11.23;;;;;;;18.77;14.94;102040.53;4444190;32;33896;-79
2022/03/21 10:38:16;;;;;;;15.80;10.55;;;;;;;18.04;14.94;102024.19;4443212;32;33829;-78
2022/03/21 10:40:48;;;;;;;15.98;10.32;;;;;;;18.73;15.04;102028.97;4443678;32;32331;-78
2022/03/21 10:43:27;;;;;;;14.85;9.85;;;;;;;19.16;15.24;102023.13;4443770;32;32923;-78
2022/03/21 10:46:05;;;;;;;19.83;10.93;;;;;;;19.14;14.05;102023.34;4443390;32;33270;-78
2022/03/21 10:48:38;;;;;;;18.95;10.73;;;;;;;19.14;13.59;102014.13;4443358;32;33511;-79
2022/03/21 10:51:07;;;;;;;16.30;10.40;;;;;;;18.87;13.36;102010.38;4457157;32;33892;-79
2022/03/21 10:53:41;;;;;;;20.50;11.15;;;;;;;18.88;13.83;102012.09;4457097;32;34597;-77
2022/03/21 10:56:15;;;;;;;17.52;10.30;;;;;;;18.84;14.45;102011.69;4443195;32;33536;-78
2022/03/21 10:58:56;;;;;;;16.33;10.27;;;;;;;18.88;13.22;102009.31;4436142;32;137133;-78
2022/03/21 11:01:31;;;;;;;18.02;10.07;;;;;;;18.89;13.44;102009.13;4440810;32;33520;-78
2022/03/21 11:04:02;;;;;;;15.70;9.95;;;;;;;19.26;13.37;102007.75;4428454;32;35376;-78
2022/03/21 11:06:33;;;;;;;13.20;9.23;;;;;;;19.54;13.60;101998.41;4428018;32;34727;-78
2022/03/21 11:09:07;;;;;;;19.12;14.77;;;;;;;19.25;13.44;101994.91;4440433;32;32951;-79
2022/03/21 11:11:43;;;;;;;13.80;9.50;;;;;;;18.99;12.96;101998.44;4437786;32;34574;-79
2022/03/21 11:14:13;;;;;;;;;;;;;;;19.05;12.90;101993.97;4456569;32;34206;-78
2022/03/21 11:16:49;;;;;;;16.70;8.98;;;;;;;18.87;12.71;101977.00;4443387;32;33897;-78
2022/03/21 11:19:16;;;;;;;;;;;;;;;18.42;12.97;101987.66;4444231;32;31663;-78
2022/03/21 11:21:54;;;;;;;12.63;7.95;;;;;;;17.65;13.40;101979.34;4443472;32;33295;-78
2022/03/21 11:24:29;;;;;;;13.62;8.45;;;;;;;18.70;13.46;101969.03;4443793;32;32960;-77
2022/03/21 11:27:18;;;;;;;16.75;9.10;;;;;;;18.41;13.31;101966.50;4444300;32;34239;-78
2022/03/21 11:29:55;;;;;;;18.05;8.90;;;;;;;18.74;13.00;101963.91;4456376;32;31609;-78
2022/03/21 11:33:05;;;;;;;14.18;8.57;;;;;;;19.32;12.75;101961.50;4456309;32;33273;-78
2022/03/21 11:35:39;;;;;;;13.43;8.95;;;;;;;18.54;12.94;101962.91;4450543;32;33060;-77
2022/03/21 11:38:28;;;;;;;16.02;10.63;;;;;;;18.99;13.54;101958.63;4443881;32;34622;-78
2022/03/21 11:41:10;;;;;;;18.40;9.02;;;;;;;17.92;13.60;101956.34;4443537;32;32062;-78
2022/03/21 11:43:45;;;;;;;15.57;9.20;;;;;;;17.83;13.92;101965.87;4470236;32;34178;-81
2022/03/21 11:46:30;;;;;;;12.57;8.43;;;;;;;17.43;14.60;101959.09;4456558;32;34331;-81
2022/03/21 11:49:02;;;;;;;17.08;8.80;;;;;;;17.49;15.11;101954.69;4456364;32;33839;-81
2022/03/21 11:51:44;;;;;;;13.52;8.50;;;;;;;17.25;14.65;101953.16;4456322;32;33121;-81
2022/03/21 11:54:36;;;;;;;22.02;10.07;;;;;;;17.41;14.65;101939.88;4456630;32;33530;-81
2022/03/21 11:57:03;;;;;;;14.07;8.65;;;;;;;16.91;14.38;101940.81;4456478;32;35244;-81
2022/03/21 11:59:34;;;;;;;20.95;14.60;;;;;;;16.82;14.99;101938.37;4455302;32;32634;-81
2022/03/21 12:02:08;;;;;;;25.20;14.63;;;;;;;17.21;15.03;101944.34;4469430;32;34125;-81
2022/03/21 12:04:39;;;;;;;14.15;9.40;;;;;;;16.93;14.26;101940.62;4455966;32;33248;-82